createdAt,value
2022-08-14T00:02:02.368Z,99862.47
2022-08-14T00:04:42.000Z,99863.34
2022-08-14T00:07:14.236Z,99853.69
2022-08-14T00:09:56.027Z,99852.53
2022-08-14T00:12:33.945Z,99856.53
2022-08-14T00:15:23.394Z,99852.69
2022-08-14T00:17:53.815Z,99856.53
2022-08-14T00:20:30.636Z,99846.59
2022-08-14T00:23:12.342Z,99842.09
2022-08-14T00:25:58.629Z,99835.75
2022-08-14T00:28:35.345Z,99843.13
2022-08-14T00:31:05.621Z,99837.66
2022-08-14T00:33:51.038Z,99851.06
2022-08-14T00:36:39.243Z,99836.81
2022-08-14T00:39:18.039Z,99837.50
2022-08-14T00:41:47.578Z,99833.75
2022-08-14T00:44:21.482Z,99829.47
2022-08-14T00:47:00.868Z,99834.28
2022-08-14T00:49:30.211Z,99838.81
2022-08-14T00:52:00.609Z,99837.50
2022-08-14T00:54:28.724Z,99839.88
2022-08-14T00:56:56.996Z,99842.53
2022-08-14T00:59:27.559Z,99836.94
2022-08-14T01:01:59.663Z,99846.59
2022-08-14T01:04:50.891Z,99847.47
2022-08-14T01:07:21.465Z,99839.41
2022-08-14T01:09:51.920Z,99852.28
2022-08-14T01:12:27.389Z,99856.41
2022-08-14T01:14:58.487Z,99862.03
2022-08-14T01:17:50.793Z,99868.47
2022-08-14T01:20:39.926Z,99865.41
2022-08-14T01:23:15.639Z,99862.41
2022-08-14T01:25:45.977Z,99858.91
2022-08-14T01:28:47.087Z,99864.00
2022-08-14T01:31:06.342Z,99874.75
2022-08-14T01:33:59.336Z,99866.34
2022-08-14T01:36:23.896Z,99864.41
2022-08-14T01:38:58.151Z,99868.19
2022-08-14T01:41:30.061Z,99873.28
2022-08-14T01:44:02.290Z,99870.81
2022-08-14T01:46:36.660Z,99871.53
2022-08-14T01:49:08.079Z,99861.47
2022-08-14T01:51:37.762Z,99864.13
2022-08-14T01:54:14.214Z,99864.28
2022-08-14T01:56:44.905Z,99865.94
2022-08-14T01:59:21.503Z,99857.53
2022-08-14T02:01:58.942Z,99863.94
2022-08-14T02:04:54.686Z,99865.94
2022-08-14T02:07:34.643Z,99859.84
2022-08-14T02:10:15.773Z,99861.47
2022-08-14T02:12:44.685Z,99859.84
2022-08-14T02:15:22.098Z,99852.91
2022-08-14T02:17:51.555Z,99856.53
2022-08-14T02:20:23.685Z,99853.41
2022-08-14T02:22:54.873Z,99858.03
2022-08-14T02:25:29.826Z,99854.75
2022-08-14T02:28:25.439Z,99853.91
2022-08-14T02:30:46.963Z,99851.34
2022-08-14T02:33:14.997Z,99852.31
2022-08-14T02:35:44.343Z,99858.94
2022-08-14T02:38:30.608Z,99862.22
2022-08-14T02:41:08.826Z,99851.06
2022-08-14T02:43:46.390Z,99857.66
2022-08-14T02:46:20.399Z,99858.63
2022-08-14T02:49:01.785Z,99858.28
2022-08-14T02:51:33.153Z,99859.63
2022-08-14T02:54:01.888Z,99864.25
2022-08-14T02:57:15.753Z,99859.63
2022-08-14T02:59:21.950Z,99862.09
2022-08-14T03:01:54.863Z,99854.69
2022-08-14T03:04:23.397Z,99852.53
2022-08-14T03:07:06.438Z,99857.28
2022-08-14T03:09:41.811Z,99855.63
2022-08-14T03:12:32.408Z,99861.56
2022-08-14T03:15:05.196Z,99849.72
2022-08-14T03:17:41.110Z,99855.63
2022-08-14T03:20:22.684Z,99864.75
2022-08-14T03:22:51.584Z,99862.44
2022-08-14T03:25:21.872Z,99867.38
2022-08-14T03:27:59.153Z,99864.91
2022-08-14T03:30:39.674Z,99859.97
2022-08-14T03:33:11.343Z,99861.94
2022-08-14T03:36:05.488Z,99860.91
2022-08-14T03:39:15.410Z,99866.56
2022-08-14T03:41:23.262Z,99863.75
2022-08-14T03:44:00.929Z,99861.28
2022-08-14T03:46:52.593Z,99863.91
2022-08-14T03:49:24.441Z,99859.78
2022-08-14T03:51:57.567Z,99860.91
2022-08-14T03:54:26.186Z,99870.13
2022-08-14T03:56:55.028Z,99869.78
2022-08-14T03:59:24.478Z,99869.44
2022-08-14T04:01:57.966Z,99869.25
2022-08-14T04:04:30.458Z,99868.81
2022-08-14T04:06:59.459Z,99867.94
2022-08-14T04:09:27.709Z,99863.78
2022-08-14T04:11:58.153Z,99869.41
2022-08-14T04:14:29.456Z,99867.25
2022-08-14T04:16:57.542Z,99875.94
2022-08-14T04:19:28.111Z,99872.41
2022-08-14T04:22:03.812Z,99875.81
2022-08-14T04:24:38.333Z,99876.38
2022-08-14T04:40:15.065Z,99871.06
2022-08-14T04:43:14.376Z,99870.34
2022-08-14T04:45:45.319Z,99866.84
2022-08-14T04:48:38.676Z,99865.44
2022-08-14T04:51:11.640Z,99857.88
2022-08-14T04:53:44.670Z,99859.09
2022-08-14T04:56:30.517Z,99850.69
2022-08-14T04:59:09.556Z,99846.41
2022-08-14T05:01:40.464Z,99846.34
2022-08-14T05:04:08.845Z,99844.03
2022-08-14T05:06:44.337Z,99844.13
2022-08-14T05:09:14.358Z,99845.44
2022-08-14T05:11:44.527Z,99849.78
2022-08-14T05:14:16.874Z,99844.81
2022-08-14T05:17:02.011Z,99845.47
2022-08-14T05:19:32.739Z,99848.97
2022-08-14T05:22:16.561Z,99847.34
2022-08-14T05:24:48.654Z,99838.97
2022-08-14T05:27:23.153Z,99848.56
2022-08-14T05:29:53.451Z,99846.94
2022-08-14T05:32:21.769Z,99841.63
2022-08-14T05:34:50.904Z,99838.34
2022-08-14T05:37:19.903Z,99839.78
2022-08-14T05:39:48.061Z,99832.16
2022-08-14T05:42:22.245Z,99831.38
2022-08-14T05:44:56.715Z,99833.81
2022-08-14T05:47:28.596Z,99826.81
2022-08-14T05:49:58.874Z,99832.66
2022-08-14T05:52:39.009Z,99804.13
2022-08-14T05:55:09.454Z,99829.16
2022-08-14T05:57:47.904Z,99834.72
2022-08-14T06:00:29.116Z,99833.59
2022-08-14T06:03:00.308Z,99837.75
2022-08-14T06:05:29.651Z,99828.72
2022-08-14T06:07:58.536Z,99835.75
2022-08-14T06:10:28.028Z,99829.97
2022-08-14T06:12:57.426Z,99815.56
2022-08-14T06:15:30.399Z,99815.72
2022-08-14T06:18:00.323Z,99821.63
2022-08-14T06:20:30.123Z,99818.22
2022-08-14T06:22:59.187Z,99813.75
2022-08-14T06:25:28.319Z,99819.06
2022-08-14T06:27:58.129Z,99820.81
2022-08-14T06:30:45.750Z,99821.38
2022-08-14T06:33:15.585Z,99819.81
2022-08-14T06:35:43.912Z,99813.03
2022-08-14T06:38:17.712Z,99826.53
2022-08-14T06:40:46.710Z,99819.75
2022-08-14T06:43:15.818Z,99811.59
2022-08-14T06:45:53.930Z,99816.34
2022-08-14T06:48:24.777Z,99814.84
2022-08-14T06:50:54.428Z,99806.97
2022-08-14T06:53:27.898Z,99804.63
2022-08-14T06:56:00.706Z,99801.13
2022-08-14T06:58:32.533Z,99806.03
2022-08-14T07:01:27.116Z,99799.72
2022-08-14T07:04:23.249Z,99790.31
2022-08-14T07:06:55.850Z,99797.09
2022-08-14T07:09:43.746Z,99794.81
2022-08-14T07:12:55.015Z,99798.72
2022-08-14T07:15:05.358Z,99804.69
2022-08-14T07:17:36.513Z,99804.78
2022-08-14T07:20:07.363Z,99796.16
2022-08-14T07:22:56.204Z,99800.91
2022-08-14T07:25:30.410Z,99801.75
2022-08-14T07:28:01.034Z,99801.03
2022-08-14T07:30:34.227Z,99795.19
2022-08-14T07:33:04.867Z,99794.38
2022-08-14T07:35:42.815Z,99793.13
2022-08-14T07:38:24.030Z,99795.50
2022-08-14T07:40:53.290Z,99797.41
2022-08-14T07:43:21.951Z,99793.94
2022-08-14T07:45:51.161Z,99791.25
2022-08-14T07:48:24.999Z,99797.91
2022-08-14T07:51:00.695Z,99795.47
2022-08-14T07:53:36.621Z,99794.75
2022-08-14T07:56:43.746Z,99787.25
2022-08-14T07:58:59.181Z,99789.41
2022-08-14T08:01:29.866Z,99784.94
2022-08-14T08:04:01.178Z,99785.63
2022-08-14T08:06:30.633Z,99786.13
2022-08-14T08:09:03.159Z,99784.59
2022-08-14T08:11:37.126Z,99794.50
2022-08-14T08:14:16.516Z,99783.69
2022-08-14T08:16:50.931Z,99775.50
2022-08-14T08:19:21.346Z,99785.28
2022-08-14T08:21:49.531Z,99786.47
2022-08-14T08:24:19.754Z,99793.50
2022-08-14T08:26:50.684Z,99791.66
2022-08-14T08:29:29.331Z,99784.47
2022-08-14T08:32:02.042Z,99779.22
2022-08-14T08:34:45.991Z,99772.22
2022-08-14T08:37:14.940Z,99764.72
2022-08-14T08:40:02.906Z,99769.50
2022-08-14T08:42:38.850Z,99764.69
2022-08-14T08:45:12.280Z,99749.03
2022-08-14T08:47:41.554Z,99749.16
2022-08-14T08:50:23.044Z,99741.59
2022-08-14T08:53:02.094Z,99744.25
2022-08-14T08:55:34.013Z,99745.16
2022-08-14T08:58:05.407Z,99736.22
2022-08-14T09:00:43.063Z,99719.34
2022-08-14T09:03:13.261Z,99721.59
2022-08-14T09:05:54.176Z,99717.94
2022-08-14T09:08:26.694Z,99717.63
2022-08-14T09:11:02.517Z,99713.91
2022-08-14T09:13:49.001Z,99717.78
2022-08-14T09:16:23.637Z,99709.34
2022-08-14T09:18:53.861Z,99701.81
2022-08-14T09:21:31.182Z,99698.44
2022-08-14T09:24:29.038Z,99713.56
2022-08-14T09:26:50.066Z,99701.38
2022-08-14T09:29:23.372Z,99688.47
2022-08-14T09:31:57.488Z,99708.03
2022-08-14T09:34:53.266Z,99711.25
2022-08-14T09:37:50.686Z,99692.97
2022-08-14T09:40:37.269Z,99693.66
2022-08-14T09:43:22.332Z,99687.38
2022-08-14T09:45:53.914Z,99693.25
2022-08-14T09:48:29.878Z,99684.69
2022-08-14T09:54:19.239Z,99681.50
2022-08-14T09:56:44.199Z,99663.25
2022-08-14T09:59:16.764Z,99663.97
2022-08-14T10:01:53.096Z,99670.84
2022-08-14T10:04:32.867Z,99671.69
2022-08-14T10:07:04.550Z,99670.91
2022-08-14T10:09:35.404Z,99669.97
2022-08-14T10:12:13.310Z,99679.59
2022-08-14T10:14:53.461Z,99684.94
2022-08-14T10:17:27.621Z,99679.25
2022-08-14T10:20:01.484Z,99676.84
2022-08-14T10:33:50.507Z,99682.28
2022-08-14T10:36:36.910Z,99699.50
2022-08-14T10:39:16.363Z,99705.38
2022-08-14T10:41:46.713Z,99711.94
2022-08-14T10:44:20.972Z,99706.34
2022-08-14T10:47:36.697Z,99704.88
2022-08-14T10:49:49.346Z,99697.75
2022-08-14T10:52:24.318Z,99700.41
2022-08-14T10:54:56.322Z,99688.94
2022-08-14T10:57:25.815Z,99698.28
2022-08-14T10:59:56.249Z,99693.31
2022-08-14T11:02:44.669Z,99689.97
2022-08-14T11:05:20.514Z,99690.41
2022-08-14T11:08:00.443Z,99682.56
2022-08-14T11:10:43.186Z,99687.91
2022-08-14T11:13:12.194Z,99680.22
2022-08-14T11:15:41.016Z,99685.97
2022-08-14T11:18:09.098Z,99681.78
2022-08-14T11:20:50.980Z,99668.97
2022-08-14T11:23:23.994Z,99668.75
2022-08-14T11:25:53.673Z,99672.34
2022-08-14T11:28:46.356Z,99672.81
2022-08-14T11:31:14.452Z,99664.13
2022-08-14T11:33:44.009Z,99667.31
2022-08-14T11:36:17.251Z,99656.66
2022-08-14T11:38:48.178Z,99639.38
2022-08-14T11:41:17.625Z,99646.34
2022-08-14T11:43:58.434Z,99641.84
2022-08-14T11:46:30.865Z,99650.16
2022-08-14T11:49:06.878Z,99654.94
2022-08-14T11:51:53.733Z,99661.53
2022-08-14T11:54:34.047Z,99659.84
2022-08-14T11:57:04.572Z,99661.44
2022-08-14T11:59:34.160Z,99663.66
2022-08-14T12:03:00.183Z,99676.31
2022-08-14T12:04:59.079Z,99681.16
2022-08-14T12:07:28.817Z,99677.75
2022-08-14T12:10:00.816Z,99685.84
2022-08-14T12:12:49.820Z,99711.22
2022-08-14T12:15:30.406Z,99755.16
2022-08-14T12:17:59.987Z,99794.25
2022-08-14T12:32:05.117Z,99847.97
2022-08-14T12:34:35.442Z,99846.56
2022-08-14T12:37:05.980Z,99829.13
2022-08-14T12:39:40.089Z,99804.78
2022-08-14T12:42:11.653Z,99789.88
2022-08-14T12:45:00.132Z,99786.78
2022-08-14T12:47:34.464Z,99809.22
2022-08-14T12:50:04.102Z,99842.66
2022-08-14T12:52:43.144Z,99875.44
2022-08-14T12:55:22.603Z,99899.81
2022-08-14T12:58:05.987Z,99892.13
2022-08-14T13:01:16.192Z,99894.81
2022-08-14T13:03:45.654Z,99885.56
2022-08-14T13:06:15.811Z,99881.88
2022-08-14T13:08:52.940Z,99876.69
2022-08-14T13:11:24.296Z,99881.09
2022-08-14T13:13:59.718Z,99844.34
2022-08-14T13:16:33.852Z,99834.25
2022-08-14T13:19:12.916Z,99828.44
2022-08-14T13:22:05.866Z,99803.28
2022-08-14T13:24:33.654Z,99796.28
2022-08-14T13:27:05.062Z,99809.63
2022-08-14T13:29:40.899Z,99796.84
2022-08-14T13:32:16.158Z,99795.69
2022-08-14T13:34:52.642Z,99796.66
2022-08-14T13:37:21.189Z,99788.59
2022-08-14T13:39:57.469Z,99784.06
2022-08-14T13:42:30.788Z,99782.91
2022-08-14T13:45:01.596Z,99782.38
2022-08-14T13:47:33.370Z,99782.41
2022-08-14T13:50:08.653Z,99769.31
2022-08-14T13:52:51.769Z,99752.72
2022-08-14T13:55:24.275Z,99759.53
2022-08-14T13:58:04.196Z,99750.97
2022-08-14T14:00:35.931Z,99742.34
2022-08-14T14:03:21.894Z,99730.03
2022-08-14T14:05:54.621Z,99737.09
2022-08-14T14:08:47.599Z,99728.53
2022-08-14T14:11:16.071Z,99720.91
2022-08-14T14:13:45.517Z,99731.31
2022-08-14T14:16:21.732Z,99728.91
2022-08-14T14:19:06.877Z,99729.53
2022-08-14T14:21:41.792Z,99736.22
2022-08-14T14:24:14.989Z,99734.19
2022-08-14T14:26:46.707Z,99732.63
2022-08-14T14:29:16.784Z,99738.97
2022-08-14T14:31:48.589Z,99731.94
2022-08-14T14:34:30.259Z,99726.00
2022-08-14T14:37:03.572Z,99717.69
2022-08-14T14:39:37.435Z,99712.81
2022-08-14T14:42:09.213Z,99705.03
2022-08-14T14:44:40.644Z,99701.38
2022-08-14T14:47:13.586Z,99701.00
2022-08-14T14:49:54.772Z,99702.47
2022-08-14T14:52:27.000Z,99699.44
2022-08-14T14:54:56.969Z,99700.88
2022-08-14T14:57:35.247Z,99680.75
2022-08-14T15:00:06.751Z,99678.34
2022-08-14T15:02:38.496Z,99670.84
2022-08-14T15:05:08.210Z,99667.41
2022-08-14T15:07:38.228Z,99665.56
2022-08-14T15:10:26.823Z,99669.03
2022-08-14T15:13:00.020Z,99682.56
2022-08-14T15:15:28.502Z,99703.91
2022-08-14T15:18:01.727Z,99724.56
2022-08-14T15:20:31.488Z,99753.94
2022-08-14T15:23:08.053Z,99741.06
2022-08-14T15:25:41.058Z,99740.78
2022-08-14T15:28:12.664Z,99734.78
2022-08-14T15:30:41.753Z,99732.94
2022-08-14T15:33:09.842Z,99717.13
2022-08-14T15:35:44.858Z,99727.53
2022-08-14T15:38:17.707Z,99730.59
2022-08-14T15:40:51.586Z,99734.19
2022-08-14T15:43:27.186Z,99733.25
2022-08-14T15:45:56.150Z,99738.09
2022-08-14T15:48:24.337Z,99737.88
2022-08-14T15:50:52.710Z,99729.09
2022-08-14T15:53:23.524Z,99729.63
2022-08-14T15:55:52.838Z,99711.91
2022-08-14T15:58:21.674Z,99713.41
2022-08-14T16:01:07.739Z,99710.94
2022-08-14T16:03:40.986Z,99689.91
2022-08-14T16:06:17.666Z,99693.38
2022-08-14T16:08:58.974Z,99692.13
2022-08-14T16:11:33.009Z,99700.69
2022-08-14T16:14:01.714Z,99701.50
2022-08-14T16:16:47.020Z,99703.06
2022-08-14T16:19:21.272Z,99704.72
2022-08-14T16:22:01.375Z,99706.72
2022-08-14T16:25:02.166Z,99708.31
2022-08-14T16:27:37.310Z,99726.13
2022-08-14T16:30:25.183Z,99725.66
2022-08-14T16:32:57.317Z,99719.53
2022-08-14T16:35:42.922Z,99710.16
2022-08-14T16:38:19.814Z,99726.00
2022-08-14T16:41:26.520Z,99733.25
2022-08-14T16:43:59.125Z,99712.97
2022-08-14T16:46:28.798Z,99737.53
2022-08-14T16:49:00.681Z,99754.03
2022-08-14T16:51:33.923Z,99750.94
2022-08-14T16:54:20.694Z,99757.06
2022-08-14T16:56:56.466Z,99759.72
2022-08-14T16:59:30.595Z,99764.00
2022-08-14T17:02:13.786Z,99758.69
2022-08-14T17:04:49.171Z,99769.91
2022-08-14T17:07:17.613Z,99750.22
2022-08-14T17:09:48.602Z,99759.88
2022-08-14T17:12:34.042Z,99749.81
2022-08-14T17:15:10.619Z,99733.72
2022-08-14T17:17:58.280Z,99731.25
2022-08-14T17:20:54.173Z,99725.13
2022-08-14T17:23:16.418Z,99727.97
2022-08-14T17:25:51.284Z,99714.91
2022-08-14T17:28:50.700Z,99707.16
2022-08-14T17:31:12.076Z,99701.63
2022-08-14T17:33:44.572Z,99701.56
2022-08-14T17:36:22.480Z,99697.09
2022-08-14T17:39:02.693Z,99701.56
2022-08-14T17:41:37.621Z,99703.41
2022-08-14T17:44:34.191Z,99692.81
2022-08-14T17:47:10.561Z,99692.00
2022-08-14T17:49:46.853Z,99685.72
2022-08-14T17:52:35.995Z,99691.19
2022-08-14T17:55:09.965Z,99692.53
2022-08-14T17:57:42.328Z,99688.91
2022-08-14T18:00:14.977Z,99696.84
2022-08-14T18:02:50.471Z,99689.25
2022-08-14T18:05:23.506Z,99697.59
2022-08-14T18:08:32.129Z,99705.31
2022-08-14T18:10:58.038Z,99713.81
2022-08-14T18:13:51.052Z,99723.63
2022-08-14T18:16:20.498Z,99726.91
2022-08-14T18:18:51.631Z,99719.16
2022-08-14T18:21:40.014Z,99728.28
2022-08-14T18:24:28.381Z,99724.44
2022-08-14T18:27:08.772Z,99723.00
2022-08-14T18:29:43.022Z,99723.28
2022-08-14T18:32:47.671Z,99720.09
2022-08-14T18:35:46.345Z,99711.69
2022-08-14T18:38:26.191Z,99730.09
2022-08-14T18:41:36.372Z,99730.72
2022-08-14T18:44:10.889Z,99731.47
2022-08-14T18:47:18.085Z,99717.63
2022-08-14T18:50:27.480Z,99718.53
2022-08-14T18:53:07.147Z,99730.38
2022-08-14T18:55:52.864Z,99735.84
2022-08-14T18:58:30.367Z,99755.00
2022-08-14T19:01:04.279Z,99756.47
2022-08-14T19:03:53.507Z,99754.88
2022-08-14T19:06:44.749Z,99754.88
2022-08-14T19:09:52.773Z,99753.81
2022-08-14T19:12:57.800Z,99765.47
2022-08-14T19:15:29.258Z,99767.47
2022-08-14T19:18:14.475Z,99765.22
2022-08-14T19:20:52.542Z,99758.28
2022-08-14T19:23:42.669Z,99759.47
2022-08-14T19:26:36.040Z,99764.41
2022-08-14T19:29:24.099Z,99740.16
2022-08-14T19:31:55.642Z,99748.19
2022-08-14T19:34:40.574Z,99750.06
2022-08-14T19:37:47.819Z,99749.44
2022-08-14T19:40:31.633Z,99752.66
2022-08-14T19:43:06.470Z,99753.72
2022-08-14T19:45:35.298Z,99759.47
2022-08-14T19:48:05.333Z,99760.09
2022-08-14T19:50:38.768Z,99754.19
2022-08-14T19:53:12.009Z,99752.53
2022-08-14T19:55:59.290Z,99748.72
2022-08-14T19:58:55.212Z,99742.41
2022-08-14T20:01:37.331Z,99740.50
2022-08-14T20:04:22.829Z,99745.06
2022-08-14T20:06:57.678Z,99752.00
2022-08-14T20:11:08.262Z,99755.47
2022-08-14T20:12:29.251Z,99757.28
2022-08-14T20:15:06.886Z,99758.28
2022-08-14T20:17:40.669Z,99764.75
2022-08-14T20:20:31.597Z,99757.63
2022-08-14T20:23:02.002Z,99759.47
2022-08-14T20:25:37.714Z,99750.91
2022-08-14T20:28:35.743Z,99749.06
2022-08-14T20:31:15.864Z,99748.44
2022-08-14T20:34:06.104Z,99751.72
2022-08-14T20:36:39.091Z,99748.00
2022-08-14T20:39:09.500Z,99750.81
2022-08-14T20:41:51.313Z,99746.25
2022-08-14T20:44:42.006Z,99751.75
2022-08-14T20:47:16.442Z,99755.81
2022-08-14T20:49:44.979Z,99751.81
2022-08-14T20:52:20.039Z,99754.38
2022-08-14T20:54:51.706Z,99751.47
2022-08-14T20:57:20.532Z,99747.75
2022-08-14T20:59:53.407Z,99745.34
2022-08-14T21:02:38.762Z,99741.53
2022-08-14T21:05:21.363Z,99743.19
2022-08-14T21:07:50.482Z,99735.25
2022-08-14T21:10:35.915Z,99738.78
2022-08-14T21:13:25.539Z,99743.72
2022-08-14T21:15:57.181Z,99734.72
2022-08-14T21:18:29.463Z,99730.13
2022-08-14T21:20:59.875Z,99722.97
2022-08-14T21:23:32.480Z,99721.97
2022-08-14T21:26:03.608Z,99697.59
2022-08-14T21:28:35.153Z,99717.22
2022-08-14T21:31:04.433Z,99712.91
2022-08-14T21:33:36.674Z,99707.63
2022-08-14T21:36:07.953Z,99712.72
2022-08-14T21:38:38.094Z,99710.09
2022-08-14T21:41:43.468Z,99710.16
2022-08-14T21:44:17.386Z,99706.88
2022-08-14T21:46:49.962Z,99711.63
2022-08-14T21:49:23.479Z,99710.09
2022-08-14T21:51:58.822Z,99713.75
2022-08-14T21:54:49.511Z,99715.09
2022-08-14T21:57:56.323Z,99711.81
2022-08-14T22:00:35.687Z,99710.00
2022-08-14T22:03:02.274Z,99715.25
2022-08-14T22:05:32.194Z,99713.16
2022-08-14T22:08:02.339Z,99717.63
2022-08-14T22:10:30.854Z,99716.91
2022-08-14T22:13:01.648Z,99720.84
2022-08-14T22:15:31.231Z,99722.13
2022-08-14T22:17:59.905Z,99728.06
2022-08-14T22:20:32.630Z,99721.25
2022-08-14T22:23:04.400Z,99726.31
2022-08-14T22:25:34.637Z,99732.66
2022-08-14T22:28:12.137Z,99729.38
2022-08-14T22:30:41.778Z,99736.50
2022-08-14T22:33:13.214Z,99741.69
2022-08-14T22:35:44.657Z,99745.63
2022-08-14T22:38:37.897Z,99757.19
2022-08-14T22:41:25.002Z,99760.88
2022-08-14T22:43:51.127Z,99758.00
2022-08-14T22:46:20.390Z,99757.19
2022-08-14T22:48:51.117Z,99757.00
2022-08-14T22:51:22.886Z,99756.31
2022-08-14T22:53:53.214Z,99753.66
2022-08-14T22:56:22.393Z,99763.41
2022-08-14T22:59:00.285Z,99763.25
2022-08-14T23:01:55.792Z,99772.59
2022-08-14T23:04:34.795Z,99781.56
2022-08-14T23:07:22.125Z,99782.56
2022-08-14T23:09:56.285Z,99787.63
2022-08-14T23:12:28.283Z,99793.13
2022-08-14T23:14:58.073Z,99786.19
2022-08-14T23:17:27.417Z,99786.38
2022-08-14T23:20:08.562Z,99781.25
2022-08-14T23:22:51.877Z,99786.72
2022-08-14T23:25:56.749Z,99779.34
2022-08-14T23:28:34.787Z,99784.44
2022-08-14T23:31:00.441Z,99783.44
2022-08-14T23:33:29.333Z,99782.44
2022-08-14T23:35:59.206Z,99784.09
2022-08-14T23:38:30.494Z,99780.44
2022-08-14T23:41:00.800Z,99778.63
2022-08-14T23:43:31.502Z,99777.28
2022-08-14T23:46:00.219Z,99766.41
2022-08-14T23:48:29.387Z,99775.44
2022-08-14T23:51:00.170Z,99776.63
2022-08-14T23:53:47.360Z,99779.09
2022-08-14T23:56:20.329Z,99777.28
2022-08-14T23:59:01.203Z,99787.84
